Time;durP1;ratioP1;P1;durP2;ratioP2;P2;SDS_P1;SDS_P2;PMS_P1;PMS_P2;Temp;Humidity;BMP_temperature;BMP_pressure;BME280_temperature;BME280_humidity;BME280_pressure;Samples;Min_cycle;Max_cycle;Signal;HPM_P1;HPM_P2
2023/07/11 00:00:38;;;;;;;;;;;26.50;50.30;;;;;;5052427;28;22373;-52
2023/07/11 00:03:04;;;;;;;;;;;26.50;50.30;;;;;;5069195;28;19919;-52
2023/07/11 00:05:29;;;;;;;;;;;26.40;50.30;;;;;;5066787;28;19955;-52
2023/07/11 00:07:55;;;;;;;;;;;26.40;50.60;;;;;;5060464;28;20416;-53
2023/07/11 00:10:20;;;;;;;;;;;26.50;50.60;;;;;;5072832;28;19912;-52
2023/07/11 00:12:45;;;;;;;;;;;26.40;50.70;;;;;;5066022;28;19917;-52
2023/07/11 00:15:12;;;;;;;;;;;26.40;50.80;;;;;;5054028;28;19960;-52
2023/07/11 00:17:37;;;;;;;;;;;26.40;50.70;;;;;;5065896;28;19998;-51
2023/07/11 00:20:04;;;;;;;;;;;26.40;50.70;;;;;;5064919;28;20011;-52
2023/07/11 00:22:30;;;;;;;;;;;26.30;51.00;;;;;;5061342;28;19913;-51
2023/07/11 00:24:56;;;;;;;;;;;26.40;51.10;;;;;;5051619;28;19952;-52
2023/07/11 00:27:23;;;;;;;;;;;26.20;51.10;;;;;;5052637;28;19948;-52
2023/07/11 00:29:49;;;;;;;;;;;26.20;51.40;;;;;;5053845;28;19917;-52
2023/07/11 00:32:14;;;;;;;;;;;26.20;51.50;;;;;;5070109;28;19909;-52
2023/07/11 00:34:40;;;;;;;;;;;26.10;51.50;;;;;;5052377;28;19936;-51
2023/07/11 00:37:05;;;;;;;;;;;26.20;51.50;;;;;;5053139;28;19954;-51
2023/07/11 00:39:31;;;;;;;;;;;26.20;52.10;;;;;;5052414;28;19913;-52
2023/07/11 00:41:57;;;;;;;;;;;26.20;51.50;;;;;;5056358;28;19908;-52
2023/07/11 00:44:23;;;;;;;;;;;26.20;51.50;;;;;;5058596;28;19966;-52
2023/07/11 00:46:49;;;;;;;;;;;26.20;51.40;;;;;;5051583;28;20674;-52
2023/07/11 00:49:15;;;;;;;;;;;26.20;51.30;;;;;;5056901;28;19935;-52
2023/07/11 00:51:58;;;;;;;;;;;26.20;51.40;;;;;;5064316;28;19916;-52
2023/07/11 00:54:24;;;;;;;;;;;26.20;51.40;;;;;;5050396;28;20555;-52
2023/07/11 00:56:49;;;;;;;;;;;26.10;51.60;;;;;;5052549;28;20371;-52
2023/07/11 00:59:16;;;;;;;;;;;26.00;51.80;;;;;;5051527;28;20039;-52
2023/07/11 01:01:43;;;;;;;;;;;25.90;52.00;;;;;;5072447;28;19991;-51
2023/07/11 01:04:08;;;;;;;;;;;25.90;52.20;;;;;;5061176;28;20391;-51
2023/07/11 01:06:33;;;;;;;;;;;25.90;52.10;;;;;;5055707;28;20011;-52
2023/07/11 01:08:59;;;;;;;;;;;25.90;52.10;;;;;;5051880;28;20005;-52
2023/07/11 01:11:25;;;;;;;;;;;25.90;51.90;;;;;;5051978;28;19916;-52
2023/07/11 01:13:51;;;;;;;;;;;25.90;51.90;;;;;;5051402;28;19935;-52
2023/07/11 01:16:16;;;;;;;;;;;25.80;52.10;;;;;;5052880;28;20375;-52
2023/07/11 01:18:42;;;;;;;;;;;25.80;52.10;;;;;;5070590;28;19920;-52
2023/07/11 01:21:08;;;;;;;;;;;25.80;52.00;;;;;;5058809;28;20023;-51
2023/07/11 01:23:34;;;;;;;;;;;25.90;52.00;;;;;;5051913;28;19928;-52
2023/07/11 01:26:04;;;;;;;;;;;25.90;51.90;;;;;;5064542;28;20265;-53
2023/07/11 01:28:30;;;;;;;;;;;25.90;51.80;;;;;;5058813;28;19919;-52
2023/07/11 01:30:55;;;;;;;;;;;25.90;51.80;;;;;;5066073;28;19995;-52
2023/07/11 01:33:24;;;;;;;;;;;25.90;51.80;;;;;;5052344;28;19924;-52
2023/07/11 01:35:53;;;;;;;;;;;25.90;51.90;;;;;;5070965;28;19939;-52
2023/07/11 01:38:19;;;;;;;;;;;25.90;51.80;;;;;;5069625;28;19909;-52
2023/07/11 01:40:46;;;;;;;;;;;25.90;51.90;;;;;;5060361;28;19916;-52
2023/07/11 01:43:11;;;;;;;;;;;25.90;51.90;;;;;;5071901;28;19909;-52
2023/07/11 01:45:36;;;;;;;;;;;25.80;52.00;;;;;;5064119;28;19931;-52
2023/07/11 01:48:02;;;;;;;;;;;25.70;52.20;;;;;;5058053;28;19920;-52
2023/07/11 01:50:27;;;;;;;;;;;25.70;52.20;;;;;;5049907;28;19909;-52
2023/07/11 01:52:53;;;;;;;;;;;25.60;52.40;;;;;;5059552;28;20184;-52
2023/07/11 01:55:18;;;;;;;;;;;25.60;52.50;;;;;;5071911;28;19916;-52
2023/07/11 01:57:44;;;;;;;;;;;25.60;52.60;;;;;;5063351;28;19920;-52
2023/07/11 02:00:09;;;;;;;;;;;25.60;52.60;;;;;;5055761;28;19923;-52
2023/07/11 02:02:35;;;;;;;;;;;25.60;52.70;;;;;;5054653;28;20330;-52
2023/07/11 02:05:00;;;;;;;;;;;25.60;52.70;;;;;;5075720;28;20364;-54
2023/07/11 02:07:26;;;;;;;;;;;25.60;52.60;;;;;;5073350;28;19956;-52
2023/07/11 02:09:51;;;;;;;;;;;25.70;52.60;;;;;;5067238;28;19939;-52
2023/07/11 02:12:17;;;;;;;;;;;25.60;52.60;;;;;;5057425;28;19966;-52
2023/07/11 02:14:42;;;;;;;;;;;25.60;52.60;;;;;;5059924;28;19923;-52
2023/07/11 02:17:08;;;;;;;;;;;25.70;52.60;;;;;;5075424;28;19920;-52
2023/07/11 02:19:34;;;;;;;;;;;25.70;52.60;;;;;;5069485;28;19942;-52
2023/07/11 02:21:59;;;;;;;;;;;25.70;52.70;;;;;;5072740;28;19923;-53
2023/07/11 02:24:25;;;;;;;;;;;25.60;52.90;;;;;;5074861;28;19958;-53
2023/07/11 02:26:50;;;;;;;;;;;25.60;53.60;;;;;;5060093;28;19913;-52
2023/07/11 02:29:16;;;;;;;;;;;25.60;53.00;;;;;;5055174;28;19963;-52
2023/07/11 02:31:41;;;;;;;;;;;25.50;53.20;;;;;;5055281;28;19920;-52
2023/07/11 02:34:07;;;;;;;;;;;25.60;53.20;;;;;;5055022;28;19909;-51
2023/07/11 02:36:32;;;;;;;;;;;25.40;53.20;;;;;;5071288;28;19924;-52
2023/07/11 02:38:58;;;;;;;;;;;25.50;53.30;;;;;;5069510;28;19954;-52
2023/07/11 02:41:24;;;;;;;;;;;25.50;53.30;;;;;;5074564;28;19939;-53
2023/07/11 02:43:49;;;;;;;;;;;25.40;53.30;;;;;;5064332;28;19921;-52
2023/07/11 02:46:15;;;;;;;;;;;25.40;53.40;;;;;;5054888;28;20310;-52
2023/07/11 02:48:41;;;;;;;;;;;25.40;53.50;;;;;;5053660;28;19917;-52
2023/07/11 02:51:06;;;;;;;;;;;25.40;53.70;;;;;;5070846;28;20430;-52
2023/07/11 02:53:32;;;;;;;;;;;25.40;53.60;;;;;;5061039;28;19916;-52
2023/07/11 02:55:57;;;;;;;;;;;25.40;53.70;;;;;;5065826;28;19962;-52
2023/07/11 02:58:23;;;;;;;;;;;25.50;53.60;;;;;;5074519;28;19993;-52
2023/07/11 03:00:49;;;;;;;;;;;25.50;53.50;;;;;;5066040;28;19956;-52
2023/07/11 03:03:14;;;;;;;;;;;25.50;53.50;;;;;;5053474;28;20373;-52
2023/07/11 03:05:43;;;;;;;;;;;25.40;53.60;;;;;;5054633;28;20822;-52
2023/07/11 03:08:08;;;;;;;;;;;25.40;53.50;;;;;;5062862;28;20400;-52
2023/07/11 03:10:34;;;;;;;;;;;25.40;53.50;;;;;;5055855;28;20042;-52
2023/07/11 03:13:00;;;;;;;;;;;25.40;53.70;;;;;;5057767;28;19962;-52
2023/07/11 03:15:25;;;;;;;;;;;25.30;53.80;;;;;;5069141;28;19929;-52
2023/07/11 03:17:50;;;;;;;;;;;25.30;53.80;;;;;;5070125;28;20324;-52
2023/07/11 03:20:16;;;;;;;;;;;25.30;53.80;;;;;;5067197;28;19920;-52
2023/07/11 03:22:41;;;;;;;;;;;25.30;53.90;;;;;;5068790;28;19909;-52
2023/07/11 03:25:07;;;;;;;;;;;25.20;53.90;;;;;;5068890;28;20151;-52
2023/07/11 03:27:32;;;;;;;;;;;25.10;54.00;;;;;;5073735;28;19920;-51
2023/07/11 03:29:58;;;;;;;;;;;25.10;54.00;;;;;;5060083;28;19913;-52
2023/07/11 03:32:23;;;;;;;;;;;25.10;54.10;;;;;;5054829;28;19917;-51
2023/07/11 03:34:49;;;;;;;;;;;25.10;54.10;;;;;;5067451;28;19921;-52
2023/07/11 03:37:14;;;;;;;;;;;25.10;54.10;;;;;;5069530;28;19967;-51
2023/07/11 03:39:39;;;;;;;;;;;25.10;54.20;;;;;;5052886;28;19931;-52
2023/07/11 03:42:05;;;;;;;;;;;25.10;54.10;;;;;;5052742;28;19913;-51
2023/07/11 03:44:30;;;;;;;;;;;25.00;54.10;;;;;;5054067;28;19995;-52
2023/07/11 03:46:56;;;;;;;;;;;25.00;54.20;;;;;;5057257;28;19974;-52
2023/07/11 03:49:21;;;;;;;;;;;25.00;54.10;;;;;;5073600;28;19908;-51
2023/07/11 03:51:47;;;;;;;;;;;25.00;54.00;;;;;;5065258;28;19968;-52
2023/07/11 03:54:12;;;;;;;;;;;25.10;54.00;;;;;;5056416;28;19913;-51
2023/07/11 03:56:38;;;;;;;;;;;25.10;53.90;;;;;;5072635;28;20369;-51
2023/07/11 03:59:03;;;;;;;;;;;25.10;53.90;;;;;;5069164;28;19963;-52
2023/07/11 04:01:29;;;;;;;;;;;25.10;53.90;;;;;;5073539;28;19913;-51
2023/07/11 04:03:54;;;;;;;;;;;25.10;53.90;;;;;;5054972;28;19922;-52
2023/07/11 04:06:20;;;;;;;;;;;25.10;54.00;;;;;;5055753;28;20324;-52
2023/07/11 04:08:46;;;;;;;;;;;25.10;54.10;;;;;;5052332;28;19908;-51
2023/07/11 04:11:12;;;;;;;;;;;25.00;54.10;;;;;;5066894;28;19909;-51
2023/07/11 04:13:37;;;;;;;;;;;25.00;54.20;;;;;;5072326;28;19934;-51
2023/07/11 04:16:03;;;;;;;;;;;24.90;54.20;;;;;;5058472;28;20744;-51
2023/07/11 04:18:28;;;;;;;;;;;24.90;54.40;;;;;;5056616;28;20289;-52
2023/07/11 04:20:54;;;;;;;;;;;24.90;54.50;;;;;;5053901;28;19951;-52
2023/07/11 04:23:19;;;;;;;;;;;24.70;54.70;;;;;;5052135;28;19924;-51
2023/07/11 04:25:45;;;;;;;;;;;24.70;55.10;;;;;;5051418;28;19915;-51
2023/07/11 04:28:11;;;;;;;;;;;24.70;55.00;;;;;;5051831;28;19913;-51
2023/07/11 04:30:37;;;;;;;;;;;24.70;55.40;;;;;;5055663;28;20268;-52
2023/07/11 04:33:02;;;;;;;;;;;24.70;55.50;;;;;;5068995;28;19912;-52
2023/07/11 04:35:29;;;;;;;;;;;24.60;55.50;;;;;;5072795;28;19927;-51
2023/07/11 04:37:54;;;;;;;;;;;24.60;55.70;;;;;;5066843;28;19921;-52
2023/07/11 04:40:20;;;;;;;;;;;24.40;55.80;;;;;;5068074;28;19930;-52
2023/07/11 04:42:45;;;;;;;;;;;24.50;56.20;;;;;;5072587;28;19912;-51
2023/07/11 04:45:11;;;;;;;;;;;24.40;56.20;;;;;;5064207;28;20395;-51
2023/07/11 04:47:36;;;;;;;;;;;24.50;56.20;;;;;;5071843;28;19915;-52
2023/07/11 04:50:02;;;;;;;;;;;24.50;56.10;;;;;;5062268;28;19974;-50
2023/07/11 04:52:28;;;;;;;;;;;24.60;56.10;;;;;;5062230;28;19928;-51
2023/07/11 04:54:53;;;;;;;;;;;24.50;56.30;;;;;;5061011;28;19920;-51
2023/07/11 04:57:19;;;;;;;;;;;24.50;56.30;;;;;;5069741;28;20376;-51
2023/07/11 04:59:44;;;;;;;;;;;24.50;56.50;;;;;;5072570;28;19982;-51
2023/07/11 05:02:09;;;;;;;;;;;24.40;57.30;;;;;;5059079;28;19917;-52
2023/07/11 05:04:35;;;;;;;;;;;24.30;56.70;;;;;;5056098;28;19912;-52
2023/07/11 05:07:00;;;;;;;;;;;24.40;56.70;;;;;;5061057;28;19917;-52
2023/07/11 05:09:29;;;;;;;;;;;24.40;56.80;;;;;;5059903;28;19912;-52
2023/07/11 05:11:55;;;;;;;;;;;24.40;56.80;;;;;;5054144;28;19924;-52
2023/07/11 05:14:20;;;;;;;;;;;24.30;56.80;;;;;;5055614;28;19914;-52
2023/07/11 05:16:46;;;;;;;;;;;24.30;57.00;;;;;;5052154;28;20075;-52
2023/07/11 05:19:11;;;;;;;;;;;24.30;57.10;;;;;;5049126;28;19921;-52
2023/07/11 05:21:37;;;;;;;;;;;24.30;57.20;;;;;;5067877;28;19912;-52
2023/07/11 05:24:02;;;;;;;;;;;24.30;57.30;;;;;;5068186;28;19969;-52
2023/07/11 05:26:28;;;;;;;;;;;24.30;57.20;;;;;;5068719;28;20276;-52
2023/07/11 05:28:53;;;;;;;;;;;24.30;57.40;;;;;;5072110;28;20009;-53
2023/07/11 05:31:19;;;;;;;;;;;24.20;57.30;;;;;;5054877;28;20010;-52
2023/07/11 05:33:44;;;;;;;;;;;24.20;57.40;;;;;;5050601;28;19920;-52
2023/07/11 05:38:39;;;;;;;;;;;24.30;57.40;;;;;;5071275;28;19927;-52
2023/07/11 05:41:05;;;;;;;;;;;24.30;57.40;;;;;;5061121;28;19909;-52
2023/07/11 05:43:30;;;;;;;;;;;24.30;57.30;;;;;;5064340;28;19935;-52
2023/07/11 05:45:55;;;;;;;;;;;24.20;57.30;;;;;;5071788;28;19920;-52
2023/07/11 05:48:21;;;;;;;;;;;24.30;57.40;;;;;;5060925;28;19963;-52
2023/07/11 05:50:56;;;;;;;;;;;24.30;57.40;;;;;;5072107;28;20058;-52
2023/07/11 05:53:21;;;;;;;;;;;24.20;57.30;;;;;;5058982;28;20289;-52
2023/07/11 05:55:47;;;;;;;;;;;24.30;57.20;;;;;;5068323;28;20335;-52
2023/07/11 05:58:13;;;;;;;;;;;24.30;57.10;;;;;;5065686;28;19913;-52
2023/07/11 06:00:38;;;;;;;;;;;24.30;57.00;;;;;;5050639;28;19917;-52
2023/07/11 06:03:03;;;;;;;;;;;24.30;57.00;;;;;;5050807;28;20007;-52
2023/07/11 06:05:29;;;;;;;;;;;24.30;57.00;;;;;;5056767;28;20377;-52
2023/07/11 06:07:54;;;;;;;;;;;24.30;56.90;;;;;;5070881;28;20392;-52
2023/07/11 06:10:20;;;;;;;;;;;24.30;56.80;;;;;;5066906;28;20335;-52
2023/07/11 06:12:45;;;;;;;;;;;24.30;56.80;;;;;;5061572;28;20442;-52
2023/07/11 06:15:11;;;;;;;;;;;24.30;56.70;;;;;;5061774;28;19939;-51
2023/07/11 06:17:36;;;;;;;;;;;24.30;57.30;;;;;;5064184;28;19912;-52
2023/07/11 06:20:03;;;;;;;;;;;24.30;56.50;;;;;;5069915;28;19913;-52
2023/07/11 06:22:28;;;;;;;;;;;24.30;56.50;;;;;;5066048;28;20564;-52
2023/07/11 06:24:54;;;;;;;;;;;24.30;56.40;;;;;;5056765;28;19921;-52
2023/07/11 06:27:19;;;;;;;;;;;24.30;56.40;;;;;;5069630;28;19913;-52
2023/07/11 06:29:46;;;;;;;;;;;24.40;56.40;;;;;;5065769;28;20102;-52
2023/07/11 06:32:12;;;;;;;;;;;24.30;56.30;;;;;;5070131;28;19909;-52
2023/07/11 06:34:37;;;;;;;;;;;24.30;56.20;;;;;;5064645;28;19943;-52
2023/07/11 06:37:03;;;;;;;;;;;24.30;56.20;;;;;;5069356;28;19944;-52
2023/07/11 06:39:28;;;;;;;;;;;24.40;56.20;;;;;;5058681;28;19916;-53
2023/07/11 06:41:54;;;;;;;;;;;24.40;56.30;;;;;;5060906;28;19924;-52
2023/07/11 06:44:19;;;;;;;;;;;24.40;56.20;;;;;;5074249;28;19912;-52
2023/07/11 06:46:45;;;;;;;;;;;24.40;56.10;;;;;;5059146;28;20385;-51
2023/07/11 06:49:10;;;;;;;;;;;24.50;56.10;;;;;;5074913;28;19948;-52
2023/07/11 06:51:36;;;;;;;;;;;24.50;56.20;;;;;;5061921;28;20280;-51
2023/07/11 06:54:02;;;;;;;;;;;24.50;56.10;;;;;;5066733;28;20376;-52
2023/07/11 06:56:28;;;;;;;;;;;24.40;55.90;;;;;;5070229;28;20372;-52
2023/07/11 06:58:53;;;;;;;;;;;24.50;56.00;;;;;;5054694;28;19919;-53
2023/07/11 07:01:22;;;;;;;;;;;24.50;55.90;;;;;;5052474;28;20011;-51
2023/07/11 07:03:47;;;;;;;;;;;24.50;55.80;;;;;;5045202;28;19913;-52
2023/07/11 07:06:13;;;;;;;;;;;24.50;55.90;;;;;;5054387;28;19920;-52
2023/07/11 07:08:38;;;;;;;;;;;24.50;55.80;;;;;;5050527;28;19913;-53
2023/07/11 07:11:03;;;;;;;;;;;24.50;55.80;;;;;;5053393;28;19920;-51
2023/07/11 07:13:29;;;;;;;;;;;24.60;55.90;;;;;;5048616;28;19917;-50
2023/07/11 07:15:56;;;;;;;;;;;24.60;55.70;;;;;;5046091;28;20436;-51
2023/07/11 07:18:22;;;;;;;;;;;24.60;55.40;;;;;;5049578;28;19916;-52
2023/07/11 07:20:47;;;;;;;;;;;24.60;55.50;;;;;;5049711;28;19920;-52
2023/07/11 07:23:13;;;;;;;;;;;24.60;55.40;;;;;;5053626;28;20003;-52
2023/07/11 07:25:39;;;;;;;;;;;24.70;55.40;;;;;;5047954;28;19920;-52
2023/07/11 07:28:04;;;;;;;;;;;24.70;55.30;;;;;;5055257;28;19931;-52
2023/07/11 07:30:30;;;;;;;;;;;24.70;55.40;;;;;;5052151;28;19913;-52
2023/07/11 07:32:55;;;;;;;;;;;24.60;55.30;;;;;;5048341;28;20336;-51
2023/07/11 07:35:21;;;;;;;;;;;24.50;55.40;;;;;;5053449;28;19938;-51
2023/07/11 07:37:46;;;;;;;;;;;24.60;55.50;;;;;;5056134;28;19923;-52
2023/07/11 07:40:12;;;;;;;;;;;24.60;55.50;;;;;;5054413;28;19916;-52
2023/07/11 07:42:37;;;;;;;;;;;24.60;55.40;;;;;;5058477;28;20007;-51
2023/07/11 07:45:04;;;;;;;;;;;24.60;55.20;;;;;;5052328;28;20377;-52
2023/07/11 07:47:29;;;;;;;;;;;24.70;55.10;;;;;;5056739;28;20392;-51
2023/07/11 07:49:55;;;;;;;;;;;24.70;55.10;;;;;;5054720;28;19912;-52
2023/07/11 07:52:20;;;;;;;;;;;24.70;54.80;;;;;;5051414;28;19928;-52
2023/07/11 07:54:46;;;;;;;;;;;24.70;54.80;;;;;;5049720;28;19974;-52
2023/07/11 07:57:11;;;;;;;;;;;24.90;54.70;;;;;;5050982;28;20019;-52
2023/07/11 07:59:37;;;;;;;;;;;24.80;54.60;;;;;;5055955;28;20364;-53
2023/07/11 08:02:02;;;;;;;;;;;24.90;54.60;;;;;;5053272;28;19944;-53
2023/07/11 08:04:30;;;;;;;;;;;24.90;54.50;;;;;;5054170;28;19967;-52
2023/07/11 08:06:55;;;;;;;;;;;24.90;54.50;;;;;;5051424;28;19970;-51
2023/07/11 08:09:21;;;;;;;;;;;24.90;54.40;;;;;;5052732;28;20320;-51
2023/07/11 08:11:46;;;;;;;;;;;24.90;54.20;;;;;;5054673;28;20339;-53
2023/07/11 08:14:12;;;;;;;;;;;24.90;54.20;;;;;;5053972;28;19948;-52
2023/07/11 08:16:38;;;;;;;;;;;25.00;54.20;;;;;;5052731;28;19917;-52
2023/07/11 08:19:04;;;;;;;;;;;25.10;54.10;;;;;;5056913;28;19996;-52
2023/07/11 08:21:30;;;;;;;;;;;25.10;54.10;;;;;;5052014;28;20336;-54
2023/07/11 08:23:55;;;;;;;;;;;25.10;54.00;;;;;;5050539;28;19943;-53
2023/07/11 08:26:22;;;;;;;;;;;25.10;54.00;;;;;;5053740;28;19925;-52
2023/07/11 08:28:47;;;;;;;;;;;25.10;54.00;;;;;;5058000;28;19908;-52
2023/07/11 08:31:13;;;;;;;;;;;25.20;53.90;;;;;;5056224;28;20008;-53
2023/07/11 08:33:38;;;;;;;;;;;25.20;53.80;;;;;;5058929;28;19981;-52
2023/07/11 08:36:04;;;;;;;;;;;25.20;53.60;;;;;;5052454;28;19921;-52
2023/07/11 08:38:30;;;;;;;;;;;25.30;53.60;;;;;;5056537;28;19931;-52
2023/07/11 08:40:55;;;;;;;;;;;25.30;53.60;;;;;;5055503;28;19920;-52
2023/07/11 08:43:22;;;;;;;;;;;25.30;53.60;;;;;;5059757;28;20297;-52
2023/07/11 08:45:55;;;;;;;;;;;25.30;53.50;;;;;;5058477;28;20325;-52
2023/07/11 08:48:27;;;;;;;;;;;25.30;53.60;;;;;;5051825;28;19975;-52
2023/07/11 08:51:02;;;;;;;;;;;25.40;53.70;;;;;;5062115;28;20320;-52
2023/07/11 08:53:33;;;;;;;;;;;25.40;53.40;;;;;;5057290;28;19916;-53
2023/07/11 08:56:05;;;;;;;;;;;25.40;53.40;;;;;;5051966;28;19939;-53
2023/07/11 08:58:32;;;;;;;;;;;25.30;53.20;;;;;;5056525;28;19913;-53
2023/07/11 09:00:57;;;;;;;;;;;25.40;53.10;;;;;;5054264;28;20007;-53
2023/07/11 09:03:26;;;;;;;;;;;25.40;52.90;;;;;;5069043;28;20074;-52
2023/07/11 09:05:54;;;;;;;;;;;25.40;52.90;;;;;;5054558;28;19939;-53
2023/07/11 09:08:20;;;;;;;;;;;25.40;53.00;;;;;;5063573;28;19923;-52
2023/07/11 09:10:54;;;;;;;;;;;25.40;53.20;;;;;;5062124;28;20000;-52
2023/07/11 09:13:20;;;;;;;;;;;25.40;53.20;;;;;;5058266;28;20373;-52
2023/07/11 09:16:00;;;;;;;;;;;25.50;53.20;;;;;;5056768;28;19917;-52
2023/07/11 09:18:33;;;;;;;;;;;25.50;52.90;;;;;;5050501;28;19952;-52
2023/07/11 09:21:12;;;;;;;;;;;25.50;52.40;;;;;;5053454;28;19913;-53
2023/07/11 09:23:40;;;;;;;;;;;25.60;52.40;;;;;;5052669;28;19919;-52
2023/07/11 09:26:08;;;;;;;;;;;25.60;52.20;;;;;;5061583;28;19928;-52
2023/07/11 09:28:34;;;;;;;;;;;25.60;52.00;;;;;;5056643;28;20327;-52
2023/07/11 09:31:00;;;;;;;;;;;25.60;51.90;;;;;;5056977;28;19916;-52
2023/07/11 09:33:36;;;;;;;;;;;25.70;51.60;;;;;;5058046;28;19909;-52
2023/07/11 09:36:02;;;;;;;;;;;25.70;51.50;;;;;;5055816;28;19913;-52
2023/07/11 09:38:30;;;;;;;;;;;25.70;51.40;;;;;;5060669;28;19925;-52
2023/07/11 09:40:57;;;;;;;;;;;25.70;51.50;;;;;;5055270;28;20372;-52
2023/07/11 09:43:23;;;;;;;;;;;25.70;51.20;;;;;;5053108;28;19956;-52
2023/07/11 09:45:48;;;;;;;;;;;25.80;51.20;;;;;;5052466;28;20054;-53
2023/07/11 09:48:13;;;;;;;;;;;25.90;51.20;;;;;;5062047;28;19913;-52
2023/07/11 09:50:58;;;;;;;;;;;25.90;50.90;;;;;;5051240;28;19916;-53
2023/07/11 09:53:26;;;;;;;;;;;25.90;50.40;;;;;;5064519;28;19916;-52
2023/07/11 09:56:01;;;;;;;;;;;25.90;50.00;;;;;;5055724;28;19916;-52
2023/07/11 09:58:28;;;;;;;;;;;26.00;49.20;;;;;;5048466;28;19974;-52
2023/07/11 10:00:57;;;;;;;;;;;26.00;48.80;;;;;;5052267;28;19916;-52
2023/07/11 10:03:23;;;;;;;;;;;26.00;48.20;;;;;;5048533;28;19962;-53
2023/07/11 10:05:49;;;;;;;;;;;26.00;47.90;;;;;;5055055;28;20348;-52
2023/07/11 10:08:18;;;;;;;;;;;26.00;47.70;;;;;;5050885;28;19957;-52
2023/07/11 10:10:47;;;;;;;;;;;26.10;47.10;;;;;;5065320;28;19935;-53
2023/07/11 10:13:13;;;;;;;;;;;26.20;46.50;;;;;;5051061;28;19913;-53
2023/07/11 10:15:40;;;;;;;;;;;26.20;45.90;;;;;;5057236;28;19917;-53
2023/07/11 10:18:05;;;;;;;;;;;26.20;45.70;;;;;;5056330;28;19913;-53
2023/07/11 10:20:31;;;;;;;;;;;26.20;45.80;;;;;;5052190;28;19916;-53
2023/07/11 10:23:01;;;;;;;;;;;26.20;45.40;;;;;;5058610;28;19916;-53
2023/07/11 10:25:27;;;;;;;;;;;26.20;44.90;;;;;;5055889;28;19982;-52
2023/07/11 10:28:03;;;;;;;;;;;26.20;44.80;;;;;;5056380;28;19970;-53
2023/07/11 10:30:30;;;;;;;;;;;26.30;44.80;;;;;;5053478;28;19917;-52
2023/07/11 10:33:08;;;;;;;;;;;26.30;45.20;;;;;;5066902;28;19916;-52
2023/07/11 10:35:34;;;;;;;;;;;26.40;44.90;;;;;;5063502;28;19927;-52
2023/07/11 10:38:19;;;;;;;;;;;26.50;45.10;;;;;;5052168;28;19912;-53
2023/07/11 10:40:45;;;;;;;;;;;26.60;45.20;;;;;;5058489;28;19920;-51
2023/07/11 10:43:14;;;;;;;;;;;26.60;45.60;;;;;;5053004;28;19932;-52
2023/07/11 10:45:43;;;;;;;;;;;26.60;45.60;;;;;;5065847;28;20002;-53
2023/07/11 10:48:27;;;;;;;;;;;26.60;45.20;;;;;;5072490;28;19913;-52
2023/07/11 10:50:55;;;;;;;;;;;26.60;45.10;;;;;;5054164;28;19917;-52
2023/07/11 10:53:40;;;;;;;;;;;26.60;44.70;;;;;;5056694;28;19916;-52
2023/07/11 10:56:08;;;;;;;;;;;26.60;45.60;;;;;;5048696;28;20124;-53
2023/07/11 10:58:34;;;;;;;;;;;26.60;44.50;;;;;;5055348;28;19916;-52
2023/07/11 11:01:17;;;;;;;;;;;26.60;44.30;;;;;;5056975;28;19917;-52
2023/07/11 11:03:43;;;;;;;;;;;26.60;44.60;;;;;;5057834;28;19921;-52
2023/07/11 11:06:13;;;;;;;;;;;26.50;44.70;;;;;;5047245;28;19920;-52
2023/07/11 11:08:45;;;;;;;;;;;26.60;45.10;;;;;;5054642;28;20324;-52
2023/07/11 11:11:28;;;;;;;;;;;26.60;45.20;;;;;;5056704;28;20365;-53
2023/07/11 11:14:15;;;;;;;;;;;26.60;45.30;;;;;;5064155;28;20438;-52
2023/07/11 11:16:41;;;;;;;;;;;26.70;45.20;;;;;;5054402;28;19921;-53
2023/07/11 11:19:10;;;;;;;;;;;26.80;46.20;;;;;;5052827;28;19947;-53
2023/07/11 11:21:39;;;;;;;;;;;26.80;46.50;;;;;;5072361;28;19920;-53
2023/07/11 11:24:08;;;;;;;;;;;26.90;46.20;;;;;;5055575;28;19966;-53
2023/07/11 11:26:39;;;;;;;;;;;26.80;46.00;;;;;;5068503;28;19917;-54
2023/07/11 11:29:20;;;;;;;;;;;26.90;45.80;;;;;;5053839;28;20377;-53
2023/07/11 11:32:04;;;;;;;;;;;26.80;46.00;;;;;;5053532;28;20000;-53
2023/07/11 11:34:33;;;;;;;;;;;26.90;46.40;;;;;;5052938;28;19912;-53
2023/07/11 11:37:18;;;;;;;;;;;26.90;46.50;;;;;;5053189;28;19960;-52
2023/07/11 11:39:44;;;;;;;;;;;26.90;46.40;;;;;;5053903;28;19912;-53
2023/07/11 11:42:20;;;;;;;;;;;26.90;46.50;;;;;;5052666;28;20392;-53
2023/07/11 11:44:47;;;;;;;;;;;26.90;46.40;;;;;;5054345;28;19913;-53
2023/07/11 11:47:12;;;;;;;;;;;26.90;46.60;;;;;;5049773;28;19987;-53
2023/07/11 11:49:38;;;;;;;;;;;27.00;46.80;;;;;;5055928;28;19913;-53
2023/07/11 11:52:05;;;;;;;;;;;26.90;47.00;;;;;;5051624;28;20968;-53
2023/07/11 11:54:34;;;;;;;;;;;27.00;46.80;;;;;;5051615;28;19912;-52
2023/07/11 11:57:00;;;;;;;;;;;27.00;46.90;;;;;;5060753;28;19923;-52
2023/07/11 11:59:26;;;;;;;;;;;27.10;46.90;;;;;;5052895;28;20003;-52
2023/07/11 12:02:00;;;;;;;;;;;27.20;47.00;;;;;;5062840;28;20324;-52
2023/07/11 12:04:28;;;;;;;;;;;27.20;47.00;;;;;;5052780;28;19924;-53
2023/07/11 12:07:12;;;;;;;;;;;27.20;46.80;;;;;;5072251;28;20349;-52
2023/07/11 12:09:46;;;;;;;;;;;27.20;46.90;;;;;;5054683;28;19919;-52
2023/07/11 12:12:35;;;;;;;;;;;27.30;47.30;;;;;;5054924;28;19923;-52
2023/07/11 12:15:01;;;;;;;;;;;27.30;46.90;;;;;;5033375;28;19924;-53
2023/07/11 12:17:32;;;;;;;;;;;27.30;46.50;;;;;;5059195;28;20019;-53
2023/07/11 12:20:01;;;;;;;;;;;27.40;46.30;;;;;;5049191;28;19919;-52
2023/07/11 12:22:38;;;;;;;;;;;27.50;46.40;;;;;;5058023;28;19920;-53
2023/07/11 12:25:06;;;;;;;;;;;27.60;46.00;;;;;;5053720;28;19913;-53
2023/07/11 12:27:32;;;;;;;;;;;27.50;46.00;;;;;;5053737;28;19945;-53
2023/07/11 12:29:58;;;;;;;;;;;27.60;45.90;;;;;;5053830;28;20254;-53
2023/07/11 12:32:32;;;;;;;;;;;27.60;46.00;;;;;;5053427;28;19912;-52
2023/07/11 12:34:58;;;;;;;;;;;27.60;46.20;;;;;;5054783;28;20421;-53
2023/07/11 12:37:24;;;;;;;;;;;27.70;46.10;;;;;;5051626;28;19992;-52
2023/07/11 12:40:11;;;;;;;;;;;27.70;46.00;;;;;;5055113;28;19916;-52
2023/07/11 12:42:39;;;;;;;;;;;27.90;45.90;;;;;;5057428;28;19999;-53
2023/07/11 12:45:11;;;;;;;;;;;27.80;45.90;;;;;;5052222;28;19964;-52
2023/07/11 12:47:37;;;;;;;;;;;27.70;45.80;;;;;;5052323;28;19912;-53
2023/07/11 12:50:02;;;;;;;;;;;27.80;45.90;;;;;;5050802;28;19912;-53
2023/07/11 12:52:28;;;;;;;;;;;27.90;45.70;;;;;;5052992;28;19919;-53
2023/07/11 12:54:53;;;;;;;;;;;28.00;45.40;;;;;;5056074;28;19923;-53
2023/07/11 12:57:20;;;;;;;;;;;27.90;45.30;;;;;;5054312;28;20396;-53
2023/07/11 12:59:45;;;;;;;;;;;28.00;45.10;;;;;;5053363;28;19919;-53
2023/07/11 13:02:14;;;;;;;;;;;28.00;45.10;;;;;;5054169;28;20401;-51
2023/07/11 13:04:43;;;;;;;;;;;28.00;44.90;;;;;;5050391;28;19913;-53
2023/07/11 13:07:12;;;;;;;;;;;27.90;45.00;;;;;;5050815;28;19917;-53
2023/07/11 13:09:45;;;;;;;;;;;27.80;45.40;;;;;;5059892;28;19913;-53
2023/07/11 13:12:11;;;;;;;;;;;27.80;45.10;;;;;;5068339;28;19999;-53
2023/07/11 13:14:37;;;;;;;;;;;27.90;44.90;;;;;;5056277;28;20007;-52
2023/07/11 13:17:02;;;;;;;;;;;27.90;45.00;;;;;;5053059;28;19913;-52
2023/07/11 13:19:28;;;;;;;;;;;27.90;45.20;;;;;;5059592;28;19917;-52
2023/07/11 13:21:54;;;;;;;;;;;27.80;45.30;;;;;;5055378;28;20266;-52
2023/07/11 13:24:23;;;;;;;;;;;27.80;45.40;;;;;;5051193;28;19947;-53
2023/07/11 13:26:50;;;;;;;;;;;27.90;45.40;;;;;;5060606;28;19995;-53
2023/07/11 13:29:19;;;;;;;;;;;27.90;45.50;;;;;;5054198;28;19917;-53
2023/07/11 13:31:45;;;;;;;;;;;28.00;45.50;;;;;;5052800;28;19916;-53
2023/07/11 13:34:14;;;;;;;;;;;28.00;45.50;;;;;;5051434;28;19916;-52
2023/07/11 13:36:41;;;;;;;;;;;28.00;45.80;;;;;;5056418;28;19974;-52
2023/07/11 13:39:07;;;;;;;;;;;28.00;45.80;;;;;;5054047;28;19913;-53
2023/07/11 13:41:35;;;;;;;;;;;28.00;45.70;;;;;;5052722;28;20384;-52
2023/07/11 13:44:02;;;;;;;;;;;27.90;45.70;;;;;;5054051;28;20328;-52
2023/07/11 13:46:28;;;;;;;;;;;27.90;45.80;;;;;;5051009;28;20387;-52
2023/07/11 13:48:54;;;;;;;;;;;27.90;45.90;;;;;;5051995;28;19923;-53
2023/07/11 13:51:33;;;;;;;;;;;27.90;45.90;;;;;;5060098;28;19928;-52
2023/07/11 13:54:15;;;;;;;;;;;27.90;45.80;;;;;;5055687;28;19992;-53
2023/07/11 13:56:40;;;;;;;;;;;27.90;45.90;;;;;;5065179;28;19928;-53
2023/07/11 13:59:06;;;;;;;;;;;27.90;45.90;;;;;;5053475;28;19921;-53
2023/07/11 14:01:32;;;;;;;;;;;27.90;45.90;;;;;;5054650;28;19946;-53
2023/07/11 14:03:58;;;;;;;;;;;27.90;46.00;;;;;;5053186;28;20301;-52
2023/07/11 14:06:23;;;;;;;;;;;27.90;46.20;;;;;;5053994;28;19966;-53
2023/07/11 14:08:49;;;;;;;;;;;27.90;46.20;;;;;;5058158;28;21866;-52
2023/07/11 14:11:15;;;;;;;;;;;28.00;46.20;;;;;;5053988;28;20388;-52
2023/07/11 14:13:41;;;;;;;;;;;28.10;46.00;;;;;;5063493;28;19908;-52
2023/07/11 14:16:07;;;;;;;;;;;28.00;45.60;;;;;;5070321;28;20397;-52
2023/07/11 14:18:32;;;;;;;;;;;28.00;45.70;;;;;;5053928;28;20113;-52